^^
Station Historical Data
Daily Summary for November 11, 2017 Units:  Both    English   Metric
« Previous Day
Next Day »
Daily Weekly Monthly Yearly Custom
  High: Low: Average:
Temperature: TemperatureF °F /  -17.8 °C 56.3 °F /  13.5 °C 73.3 °F /  22.9 °C
Dew Point: DewpointF °F /  -17.8 °C 33.3 °F /  0.7 °C 40 °F /  4.4 °C
Humidity: Humidity% 14% 34%
Wind Speed: WindSpeedMPHmph /  0km/h - 1.8mph /  2.9km/h
Wind Gust: WindSpeedGustMPHmph /  0km/h - -
Wind- - WSW
Pressure: PressureIn in /  0 hPa 29.64 in /  1003.6 hPa -
Precipitation: 0.00 in /  0 mm    
Historical Graphs
 
 
Tabular Data for November 11, 2017
Time Temperature Dew Point Pressure Wind Wind Speed Wind Gust Humidity Rainfall Rate (Hourly) solar Conditions
TemperatureF °F /  -17.8 °C DewpointF °F /  -17.8 °C PressureInin /  0hPa Calm     Humidity% HourlyPrecipInin /  0mm SolarRadiationWatts/m^2 W/m2 Conditions
00:04 62.8 °F /  17.1 °C 43.9 °F /  6.6 °C 29.74in /  1007hPa Calm     50% 0.00in /  0mm 0.0 W/m2
00:09 62.6 °F /  17 °C 43.7 °F /  6.5 °C 29.74in /  1007hPa Calm     50% 0.00in /  0mm 0.0 W/m2
00:14 62.4 °F /  16.9 °C 43.5 °F /  6.4 °C 29.74in /  1007hPa Calm     50% 0.00in /  0mm 0.0 W/m2
00:19 62.4 °F /  16.9 °C 44.1 °F /  6.7 °C 29.74in /  1007hPa Calm     51% 0.00in /  0mm 0.0 W/m2
00:24 62.2 °F /  16.8 °C 43.9 °F /  6.6 °C 29.74in /  1007hPa Calm     51% 0.00in /  0mm 0.0 W/m2
00:29 62.1 °F /  16.7 °C 44.2 °F /  6.8 °C 29.73in /  1006.7hPa Calm   2.0mph /  3.2km/h 52% 0.00in /  0mm 0.0 W/m2
00:34 62.1 °F /  16.7 °C 44.2 °F /  6.8 °C 29.74in /  1007hPa SE 0.9mph /  1.4km/h 1.0mph /  1.6km/h 52% 0.00in /  0mm 0.0 W/m2
00:39 62.1 °F /  16.7 °C 43.7 °F /  6.5 °C 29.73in /  1006.7hPa Calm     51% 0.00in /  0mm 0.0 W/m2
00:45 62.1 °F /  16.7 °C 44.2 °F /  6.8 °C 29.73in /  1006.7hPa Calm     52% 0.00in /  0mm 0.0 W/m2
00:50 62.1 °F /  16.7 °C 44.2 °F /  6.8 °C 29.73in /  1006.7hPa Calm     52% 0.00in /  0mm 0.0 W/m2
00:55 62.1 °F /  16.7 °C 44.2 °F /  6.8 °C 29.72in /  1006.3hPa Calm   1.0mph /  1.6km/h 52% 0.00in /  0mm 0.0 W/m2
01:00 62.1 °F /  16.7 °C 44.2 °F /  6.8 °C 29.72in /  1006.3hPa Calm     52% 0.00in /  0mm 0.0 W/m2
01:05 62.1 °F /  16.7 °C 44.2 °F /  6.8 °C 29.72in /  1006.3hPa Calm     52% 0.00in /  0mm 0.0 W/m2
01:10 62.1 °F /  16.7 °C 44.2 °F /  6.8 °C 29.72in /  1006.3hPa Calm     52% 0.00in /  0mm 0.0 W/m2
01:15 62.2 °F /  16.8 °C 44.4 °F /  6.9 °C 29.72in /  1006.3hPa Calm     52% 0.00in /  0mm 0.0 W/m2
01:20 62.2 °F /  16.8 °C 44.4 °F /  6.9 °C 29.72in /  1006.3hPa Calm     52% 0.00in /  0mm 0.0 W/m2
01:25 62.2 °F /  16.8 °C 44.4 °F /  6.9 °C 29.72in /  1006.3hPa Calm     52% 0.00in /  0mm 0.0 W/m2
01:31 62.2 °F /  16.8 °C 43.9 °F /  6.6 °C 29.72in /  1006.3hPa Calm     51% 0.00in /  0mm 0.0 W/m2
01:36 62.4 °F /  16.9 °C 44.6 °F /  7 °C 29.71in /  1006hPa Calm     52% 0.00in /  0mm 0.0 W/m2
01:41 62.4 °F /  16.9 °C 44.6 °F /  7 °C 29.71in /  1006hPa Calm     52% 0.00in /  0mm 0.0 W/m2
01:46 62.4 °F /  16.9 °C 44.6 °F /  7 °C 29.71in /  1006hPa Calm     52% 0.00in /  0mm 0.0 W/m2
01:51 62.2 °F /  16.8 °C 44.4 °F /  6.9 °C 29.71in /  1006hPa Calm     52% 0.00in /  0mm 0.0 W/m2
01:56 62.2 °F /  16.8 °C 43.9 °F /  6.6 °C 29.70in /  1005.6hPa Calm   3.0mph /  4.8km/h 51% 0.00in /  0mm 0.0 W/m2
02:01 62.1 °F /  16.7 °C 43.7 °F /  6.5 °C 29.70in /  1005.6hPa Calm   1.0mph /  1.6km/h 51% 0.00in /  0mm 0.0 W/m2
02:06 61.9 °F /  16.6 °C 43.5 °F /  6.4 °C 29.70in /  1005.6hPa Calm     51% 0.00in /  0mm 0.0 W/m2
02:11 61.9 °F /  16.6 °C 44.1 °F /  6.7 °C 29.70in /  1005.6hPa Calm     52% 0.00in /  0mm 0.0 W/m2
02:16 61.5 °F /  16.4 °C 43.7 °F /  6.5 °C 29.70in /  1005.6hPa Calm     52% 0.00in /  0mm 0.0 W/m2
02:22 61.3 °F /  16.3 °C 43.5 °F /  6.4 °C 29.70in /  1005.6hPa Calm     52% 0.00in /  0mm 0.0 W/m2
02:27 61.2 °F /  16.2 °C 43.9 °F /  6.6 °C 29.70in /  1005.6hPa Calm     53% 0.00in /  0mm 0.0 W/m2
02:32 61.2 °F /  16.2 °C 43.9 °F /  6.6 °C 29.70in /  1005.6hPa Calm     53% 0.00in /  0mm 0.0 W/m2
02:37 60.8 °F /  16 °C 44.1 °F /  6.7 °C 29.70in /  1005.6hPa Calm     54% 0.00in /  0mm 0.0 W/m2
02:42 60.6 °F /  15.9 °C 43.9 °F /  6.6 °C 29.70in /  1005.6hPa Calm     54% 0.00in /  0mm 0.0 W/m2
02:47 60.4 °F /  15.8 °C 43.7 °F /  6.5 °C 29.70in /  1005.6hPa Calm     54% 0.00in /  0mm 0.0 W/m2
02:52 60.1 °F /  15.6 °C 43.9 °F /  6.6 °C 29.70in /  1005.6hPa Calm     55% 0.00in /  0mm 0.0 W/m2
02:57 59.7 °F /  15.4 °C 43.5 °F /  6.4 °C 29.70in /  1005.6hPa Calm     55% 0.00in /  0mm 0.0 W/m2
03:02 59.5 °F /  15.3 °C 43.3 °F /  6.3 °C 29.70in /  1005.6hPa Calm     55% 0.00in /  0mm 0.0 W/m2
03:08 59.4 °F /  15.2 °C 43.7 °F /  6.5 °C 29.70in /  1005.6hPa Calm     56% 0.00in /  0mm 0.0 W/m2
03:13 59.2 °F /  15.1 °C 43.9 °F /  6.6 °C 29.71in /  1006hPa Calm     57% 0.00in /  0mm 0.0 W/m2
03:18 59.0 °F /  15 °C 43.7 °F /  6.5 °C 29.70in /  1005.6hPa Calm     57% 0.00in /  0mm 0.0 W/m2
03:23 58.8 °F /  14.9 °C 43.7 °F /  6.5 °C 29.71in /  1006hPa Calm     57% 0.00in /  0mm 0.0 W/m2
03:28 58.6 °F /  14.8 °C 43.5 °F /  6.4 °C 29.71in /  1006hPa Calm     57% 0.00in /  0mm 0.0 W/m2
03:33 58.6 °F /  14.8 °C 43.5 °F /  6.4 °C 29.71in /  1006hPa Calm     57% 0.00in /  0mm 0.0 W/m2
03:38 58.5 °F /  14.7 °C 43.3 °F /  6.3 °C 29.71in /  1006hPa Calm     57% 0.00in /  0mm 0.0 W/m2
03:43 58.5 °F /  14.7 °C 43.3 °F /  6.3 °C 29.71in /  1006hPa Calm     57% 0.00in /  0mm 0.0 W/m2
03:48 58.3 °F /  14.6 °C 43.2 °F /  6.2 °C 29.71in /  1006hPa Calm     57% 0.00in /  0mm 0.0 W/m2
03:54 58.1 °F /  14.5 °C 43.3 °F /  6.3 °C 29.71in /  1006hPa Calm     58% 0.00in /  0mm 0.0 W/m2
03:59 57.9 °F /  14.4 °C 43.2 °F /  6.2 °C 29.71in /  1006hPa Calm     58% 0.00in /  0mm 0.0 W/m2
04:04 57.9 °F /  14.4 °C 43.2 °F /  6.2 °C 29.72in /  1006.3hPa Calm     58% 0.00in /  0mm 0.0 W/m2
04:09 57.7 °F /  14.3 °C 43.5 °F /  6.4 °C 29.72in /  1006.3hPa Calm     59% 0.00in /  0mm 0.0 W/m2
04:14 57.6 °F /  14.2 °C 43.3 °F /  6.3 °C 29.72in /  1006.3hPa Calm     59% 0.00in /  0mm 0.0 W/m2
04:19 57.6 °F /  14.2 °C 43.7 °F /  6.5 °C 29.72in /  1006.3hPa SE 0.9mph /  1.4km/h 2.0mph /  3.2km/h 60% 0.00in /  0mm 0.0 W/m2
04:24 57.4 °F /  14.1 °C 43.2 °F /  6.2 °C 29.72in /  1006.3hPa SE 0.9mph /  1.4km/h 2.0mph /  3.2km/h 59% 0.00in /  0mm 0.0 W/m2
04:25 57.4 °F /  14.1 °C 43.2 °F /  6.2 °C 29.72in /  1006.3hPa SE 0.9mph /  1.4km/h 2.0mph /  3.2km/h 59% 0.00in /  0mm 0.0 W/m2
04:30 57.4 °F /  14.1 °C 43.2 °F /  6.2 °C 29.72in /  1006.3hPa Calm     59% 0.00in /  0mm 0.0 W/m2
04:35 57.4 °F /  14.1 °C 43.2 °F /  6.2 °C 29.72in /  1006.3hPa Calm   2.0mph /  3.2km/h 59% 0.00in /  0mm 0.0 W/m2
04:40 57.2 °F /  14 °C 43.0 °F /  6.1 °C 29.72in /  1006.3hPa Calm     59% 0.00in /  0mm 0.0 W/m2
04:46 57.0 °F /  13.9 °C 42.8 °F /  6 °C 29.72in /  1006.3hPa Calm     59% 0.00in /  0mm 0.0 W/m2
04:51 57.0 °F /  13.9 °C 43.3 °F /  6.3 °C 29.72in /  1006.3hPa ENE 0.9mph /  1.4km/h 1.0mph /  1.6km/h 60% 0.00in /  0mm 0.0 W/m2
04:56 56.8 °F /  13.8 °C 43.2 °F /  6.2 °C 29.72in /  1006.3hPa Calm     60% 0.00in /  0mm 0.0 W/m2
05:01 56.8 °F /  13.8 °C 43.2 °F /  6.2 °C 29.72in /  1006.3hPa Calm     60% 0.00in /  0mm 0.0 W/m2
05:06 56.7 °F /  13.7 °C 43.0 °F /  6.1 °C 29.72in /  1006.3hPa Calm   1.0mph /  1.6km/h 60% 0.00in /  0mm 0.0 W/m2
05:11 56.7 °F /  13.7 °C 43.0 °F /  6.1 °C 29.72in /  1006.3hPa Calm     60% 0.00in /  0mm 0.0 W/m2
05:17 56.5 °F /  13.6 °C 42.8 °F /  6 °C 29.72in /  1006.3hPa Calm     60% 0.00in /  0mm 0.0 W/m2
05:22 56.5 °F /  13.6 °C 42.8 °F /  6 °C 29.72in /  1006.3hPa Calm   1.0mph /  1.6km/h 60% 0.00in /  0mm 0.0 W/m2
05:27 56.5 °F /  13.6 °C 42.8 °F /  6 °C 29.72in /  1006.3hPa Calm     60% 0.00in /  0mm 0.0 W/m2
05:33 56.3 °F /  13.5 °C 42.6 °F /  5.9 °C 29.72in /  1006.3hPa ESE 0.9mph /  1.4km/h 3.0mph /  4.8km/h 60% 0.00in /  0mm 0.0 W/m2
05:38 56.3 °F /  13.5 °C 42.6 °F /  5.9 °C 29.72in /  1006.3hPa Calm     60% 0.00in /  0mm 0.0 W/m2
05:39 56.3 °F /  13.5 °C 42.6 °F /  5.9 °C 29.73in /  1006.7hPa Calm     60% 0.00in /  0mm 0.0 W/m2
05:44 56.5 °F /  13.6 °C 43.2 °F /  6.2 °C 29.72in /  1006.3hPa Calm     61% 0.00in /  0mm 0.0 W/m2
05:48 56.5 °F /  13.6 °C 43.2 °F /  6.2 °C 29.73in /  1006.7hPa Calm   2.0mph /  3.2km/h 61% 0.00in /  0mm 0.0 W/m2
05:53 56.5 °F /  13.6 °C 43.2 °F /  6.2 °C 29.73in /  1006.7hPa SE 0.9mph /  1.4km/h 2.0mph /  3.2km/h 61% 0.00in /  0mm 0.0 W/m2
05:58 56.5 °F /  13.6 °C 42.8 °F /  6 °C 29.73in /  1006.7hPa Calm   1.0mph /  1.6km/h 60% 0.00in /  0mm 0.0 W/m2
06:05 56.3 °F /  13.5 °C 42.6 °F /  5.9 °C 29.73in /  1006.7hPa Calm   2.0mph /  3.2km/h 60% 0.00in /  0mm 0.0 W/m2
06:11 56.3 °F /  13.5 °C 42.6 °F /  5.9 °C 29.74in /  1007hPa Calm   2.0mph /  3.2km/h 60% 0.00in /  0mm 5.0 W/m2
06:13 56.5 °F /  13.6 °C 42.8 °F /  6 °C 29.74in /  1007hPa NE 0.9mph /  1.4km/h 3.0mph /  4.8km/h 60% 0.00in /  0mm 7.0 W/m2
06:18 56.5 °F /  13.6 °C 42.8 °F /  6 °C 29.74in /  1007hPa East 0.9mph /  1.4km/h 3.0mph /  4.8km/h 60% 0.00in /  0mm 9.0 W/m2
06:23 56.5 °F /  13.6 °C 42.8 °F /  6 °C 29.74in /  1007hPa Calm   1.0mph /  1.6km/h 60% 0.00in /  0mm 12.0 W/m2
06:28 56.3 °F /  13.5 °C 42.6 °F /  5.9 °C 29.74in /  1007hPa Calm   1.0mph /  1.6km/h 60% 0.00in /  0mm 14.0 W/m2
06:33 56.5 °F /  13.6 °C 42.8 °F /  6 °C 29.74in /  1007hPa Calm   1.0mph /  1.6km/h 60% 0.00in /  0mm 16.0 W/m2
06:38 56.5 °F /  13.6 °C 43.2 °F /  6.2 °C 29.75in /  1007.3hPa Calm   4.0mph /  6.4km/h 61% 0.00in /  0mm 18.0 W/m2
06:43 56.7 °F /  13.7 °C 43.3 °F /  6.3 °C 29.75in /  1007.3hPa SE 2.0mph /  3.2km/h 3.0mph /  4.8km/h 61% 0.00in /  0mm 19.0 W/m2
06:48 56.8 °F /  13.8 °C 43.2 °F /  6.2 °C 29.75in /  1007.3hPa Calm   3.0mph /  4.8km/h 60% 0.00in /  0mm 21.0 W/m2
06:53 57.4 °F /  14.1 °C 43.7 °F /  6.5 °C 29.75in /  1007.3hPa Calm     60% 0.00in /  0mm 21.0 W/m2
06:58 57.6 °F /  14.2 °C 43.3 °F /  6.3 °C 29.75in /  1007.3hPa Calm   1.0mph /  1.6km/h 59% 0.00in /  0mm 23.0 W/m2
07:04 57.9 °F /  14.4 °C 43.2 °F /  6.2 °C 29.75in /  1007.3hPa Calm   1.0mph /  1.6km/h 58% 0.00in /  0mm 25.0 W/m2
07:09 58.3 °F /  14.6 °C 43.5 °F /  6.4 °C 29.76in /  1007.7hPa WSW 0.9mph /  1.4km/h 3.0mph /  4.8km/h 58% 0.00in /  0mm 26.0 W/m2
07:14 59.0 °F /  15 °C 43.7 °F /  6.5 °C 29.76in /  1007.7hPa Calm   1.0mph /  1.6km/h 57% 0.00in /  0mm 28.0 W/m2
07:19 59.4 °F /  15.2 °C 44.1 °F /  6.7 °C 29.76in /  1007.7hPa Calm     57% 0.00in /  0mm 35.0 W/m2
07:24 59.9 °F /  15.5 °C 44.2 °F /  6.8 °C 29.76in /  1007.7hPa Calm   2.0mph /  3.2km/h 56% 0.00in /  0mm 46.0 W/m2
07:29 60.6 °F /  15.9 °C 43.9 °F /  6.6 °C 29.76in /  1007.7hPa Calm   1.0mph /  1.6km/h 54% 0.00in /  0mm 262.0 W/m2
07:34 61.3 °F /  16.3 °C 44.1 °F /  6.7 °C 29.76in /  1007.7hPa Calm   1.0mph /  1.6km/h 53% 0.00in /  0mm 322.0 W/m2
07:39 62.1 °F /  16.7 °C 44.2 °F /  6.8 °C 29.76in /  1007.7hPa Calm   1.0mph /  1.6km/h 52% 0.00in /  0mm 345.0 W/m2
07:45 62.8 °F /  17.1 °C 44.4 °F /  6.9 °C 29.76in /  1007.7hPa Calm   1.0mph /  1.6km/h 51% 0.00in /  0mm 367.0 W/m2
07:51 63.3 °F /  17.4 °C 43.9 °F /  6.6 °C 29.76in /  1007.7hPa Calm   1.0mph /  1.6km/h 49% 0.00in /  0mm 394.0 W/m2
07:56 64.0 °F /  17.8 °C 43.9 °F /  6.6 °C 29.76in /  1007.7hPa Calm   1.0mph /  1.6km/h 48% 0.00in /  0mm 411.0 W/m2
08:01 65.1 °F /  18.4 °C 44.4 °F /  6.9 °C 29.76in /  1007.7hPa Calm   1.0mph /  1.6km/h 47% 0.00in /  0mm 434.0 W/m2
08:06 66.2 °F /  19 °C 44.2 °F /  6.8 °C 29.76in /  1007.7hPa Calm   1.0mph /  1.6km/h 45% 0.00in /  0mm 454.0 W/m2
08:11 67.3 °F /  19.6 °C 44.6 °F /  7 °C 29.76in /  1007.7hPa Calm     44% 0.00in /  0mm 473.0 W/m2
08:16 68.4 °F /  20.2 °C 44.4 °F /  6.9 °C 29.76in /  1007.7hPa Calm   1.0mph /  1.6km/h 42% 0.00in /  0mm 492.0 W/m2
08:29 70.9 °F /  21.6 °C 44.8 °F /  7.1 °C 29.76in /  1007.7hPa Calm   2.0mph /  3.2km/h 39% 0.00in /  0mm 541.0 W/m2
08:34 72.0 °F /  22.2 °C 44.2 °F /  6.8 °C 29.76in /  1007.7hPa Calm   1.0mph /  1.6km/h 37% 0.00in /  0mm 561.0 W/m2
08:40 73.0 °F /  22.8 °C 43.7 °F /  6.5 °C 29.76in /  1007.7hPa Calm   1.0mph /  1.6km/h 35% 0.00in /  0mm 580.0 W/m2
08:45 74.1 °F /  23.4 °C 44.8 °F /  7.1 °C 29.76in /  1007.7hPa Calm   3.0mph /  4.8km/h 35% 0.00in /  0mm 596.0 W/m2
08:50 75.4 °F /  24.1 °C 45.1 °F /  7.3 °C 29.76in /  1007.7hPa South 0.9mph /  1.4km/h 2.0mph /  3.2km/h 34% 0.00in /  0mm 617.0 W/m2
08:55 76.3 °F /  24.6 °C 44.2 °F /  6.8 °C 29.76in /  1007.7hPa West 2.0mph /  3.2km/h 6.0mph /  9.7km/h 32% 0.00in /  0mm 635.0 W/m2
09:00 76.5 °F /  24.7 °C 44.4 °F /  6.9 °C 29.76in /  1007.7hPa Calm     32% 0.00in /  0mm 654.0 W/m2
09:05 77.2 °F /  25.1 °C 43.3 °F /  6.3 °C 29.76in /  1007.7hPa NW 0.9mph /  1.4km/h 4.0mph /  6.4km/h 30% 0.00in /  0mm 675.0 W/m2
09:10 77.5 °F /  25.3 °C 43.7 °F /  6.5 °C 29.76in /  1007.7hPa ESE 0.9mph /  1.4km/h 3.0mph /  4.8km/h 30% 0.00in /  0mm 689.0 W/m2
09:15 78.3 °F /  25.7 °C 42.4 °F /  5.8 °C 29.76in /  1007.7hPa Calm   1.0mph /  1.6km/h 28% 0.00in /  0mm 705.0 W/m2
09:20 78.4 °F /  25.8 °C 42.6 °F /  5.9 °C 29.76in /  1007.7hPa Calm   2.0mph /  3.2km/h 28% 0.00in /  0mm 722.0 W/m2
09:26 78.6 °F /  25.9 °C 42.8 °F /  6 °C 29.76in /  1007.7hPa NNE 6.0mph /  9.7km/h 6.0mph /  9.7km/h 28% 0.00in /  0mm 738.0 W/m2
09:31 79.2 °F /  26.2 °C 43.2 °F /  6.2 °C 29.76in /  1007.7hPa North 6.0mph /  9.7km/h 9.0mph /  14.5km/h 28% 0.00in /  0mm 754.0 W/m2
09:36 79.3 °F /  26.3 °C 42.4 °F /  5.8 °C 29.76in /  1007.7hPa WNW 4.0mph /  6.4km/h 8.0mph /  12.9km/h 27% 0.00in /  0mm 772.0 W/m2
09:41 79.3 °F /  26.3 °C 43.3 °F /  6.3 °C 29.76in /  1007.7hPa Calm   3.0mph /  4.8km/h 28% 0.00in /  0mm 789.0 W/m2
09:46 79.5 °F /  26.4 °C 43.5 °F /  6.4 °C 29.76in /  1007.7hPa NE 0.9mph /  1.4km/h 5.0mph /  8km/h 28% 0.00in /  0mm 802.0 W/m2
09:51 79.9 °F /  26.6 °C 43.0 °F /  6.1 °C 29.76in /  1007.7hPa WSW 2.0mph /  3.2km/h 4.0mph /  6.4km/h 27% 0.00in /  0mm 816.0 W/m2
09:56 80.2 °F /  26.8 °C 43.2 °F /  6.2 °C 29.76in /  1007.7hPa NNE 6.0mph /  9.7km/h 9.0mph /  14.5km/h 27% 0.00in /  0mm 833.0 W/m2
10:01 80.4 °F /  26.9 °C 42.4 °F /  5.8 °C 29.76in /  1007.7hPa Calm   8.0mph /  12.9km/h 26% 0.00in /  0mm 846.0 W/m2
10:06 80.6 °F /  27 °C 43.5 °F /  6.4 °C 29.76in /  1007.7hPa North 4.0mph /  6.4km/h 10.0mph /  16.1km/h 27% 0.00in /  0mm 863.0 W/m2
10:11 81.0 °F /  27.2 °C 42.8 °F /  6 °C 29.76in /  1007.7hPa NNW 0.9mph /  1.4km/h 5.0mph /  8km/h 26% 0.00in /  0mm 875.0 W/m2
10:16 81.3 °F /  27.4 °C 43.2 °F /  6.2 °C 29.76in /  1007.7hPa NW 4.0mph /  6.4km/h 5.0mph /  8km/h 26% 0.00in /  0mm 886.0 W/m2
10:22 81.7 °F /  27.6 °C 43.5 °F /  6.4 °C 29.75in /  1007.3hPa SW 2.0mph /  3.2km/h 4.0mph /  6.4km/h 26% 0.00in /  0mm 900.0 W/m2
10:27 81.3 °F /  27.4 °C 43.2 °F /  6.2 °C 29.75in /  1007.3hPa NW 2.9mph /  4.7km/h 6.0mph /  9.7km/h 26% 0.00in /  0mm 921.0 W/m2
10:32 81.9 °F /  27.7 °C 43.7 °F /  6.5 °C 29.75in /  1007.3hPa North 6.0mph /  9.7km/h 8.0mph /  12.9km/h 26% 0.00in /  0mm 925.0 W/m2
10:37 82.2 °F /  27.9 °C 43.0 °F /  6.1 °C 29.75in /  1007.3hPa Calm   7.0mph /  11.3km/h 25% 0.00in /  0mm 940.0 W/m2
10:42 82.4 °F /  28 °C 43.0 °F /  6.1 °C 29.75in /  1007.3hPa WSW 0.9mph /  1.4km/h 3.0mph /  4.8km/h 25% 0.00in /  0mm 942.0 W/m2
10:47 82.0 °F /  27.8 °C 43.7 °F /  6.5 °C 29.75in /  1007.3hPa Calm   3.0mph /  4.8km/h 26% 0.00in /  0mm 954.0 W/m2
10:53 82.6 °F /  28.1 °C 42.1 °F /  5.6 °C 29.74in /  1007hPa North 0.9mph /  1.4km/h 4.0mph /  6.4km/h 24% 0.00in /  0mm 963.0 W/m2
10:58 82.9 °F /  28.3 °C 43.5 °F /  6.4 °C 29.74in /  1007hPa West 0.9mph /  1.4km/h 4.0mph /  6.4km/h 25% 0.00in /  0mm 972.0 W/m2
11:03 83.1 °F /  28.4 °C 41.5 °F /  5.3 °C 29.74in /  1007hPa NW 4.9mph /  7.9km/h 8.0mph /  12.9km/h 23% 0.00in /  0mm 986.0 W/m2
11:09 83.7 °F /  28.7 °C 40.8 °F /  4.9 °C 29.74in /  1007hPa NNW 4.9mph /  7.9km/h 5.0mph /  8km/h 22% 0.00in /  0mm 1004.0 W/m2
11:15 83.8 °F /  28.8 °C 41.0 °F /  5 °C 29.73in /  1006.7hPa WNW 2.9mph /  4.7km/h 6.0mph /  9.7km/h 22% 0.00in /  0mm 1011.0 W/m2
11:20 84.0 °F /  28.9 °C 39.9 °F /  4.4 °C 29.74in /  1007hPa NNW 8.1mph /  13km/h 8.1mph /  13km/h 21% 0.00in /  0mm 1018.0 W/m2
11:26 84.0 °F /  28.9 °C 39.9 °F /  4.4 °C 29.74in /  1007hPa WNW 4.0mph /  6.4km/h 9.0mph /  14.5km/h 21% 0.00in /  0mm 1018.0 W/m2
11:31 84.4 °F /  29.1 °C 39.0 °F /  3.9 °C 29.74in /  1007hPa NNW 0.9mph /  1.4km/h 8.0mph /  12.9km/h 20% 0.00in /  0mm 1041.0 W/m2
11:36 84.7 °F /  29.3 °C 39.2 °F /  4 °C 29.74in /  1007hPa NW 2.9mph /  4.7km/h 3.0mph /  4.8km/h 20% 0.00in /  0mm 1037.0 W/m2
11:41 85.1 °F /  29.5 °C 40.8 °F /  4.9 °C 29.73in /  1006.7hPa WSW 2.9mph /  4.7km/h 9.0mph /  14.5km/h 21% 0.00in /  0mm 1055.0 W/m2
11:46 85.3 °F /  29.6 °C 39.7 °F /  4.3 °C 29.73in /  1006.7hPa North 2.0mph /  3.2km/h 7.0mph /  11.3km/h 20% 0.00in /  0mm 1069.0 W/m2
11:51 84.9 °F /  29.4 °C 38.1 °F /  3.4 °C 29.73in /  1006.7hPa NNW 8.1mph /  13km/h 8.1mph /  13km/h 19% 0.00in /  0mm 1051.0 W/m2
11:56 85.3 °F /  29.6 °C 37.0 °F /  2.8 °C 29.73in /  1006.7hPa West 2.9mph /  4.7km/h 13.0mph /  20.9km/h 18% 0.00in /  0mm 1056.0 W/m2
12:01 85.5 °F /  29.7 °C 38.5 °F /  3.6 °C 29.73in /  1006.7hPa WNW 4.0mph /  6.4km/h 6.0mph /  9.7km/h 19% 0.00in /  0mm 1055.0 W/m2
12:07 85.8 °F /  29.9 °C 38.8 °F /  3.8 °C 29.72in /  1006.3hPa NNW 2.0mph /  3.2km/h 4.0mph /  6.4km/h 19% 0.00in /  0mm 1063.0 W/m2
12:12 85.8 °F /  29.9 °C 37.4 °F /  3 °C 29.72in /  1006.3hPa NNW 2.9mph /  4.7km/h 11.0mph /  17.7km/h 18% 0.00in /  0mm 1063.0 W/m2
12:17 85.8 °F /  29.9 °C 38.8 °F /  3.8 °C 29.72in /  1006.3hPa NE 4.0mph /  6.4km/h 6.0mph /  9.7km/h 19% 0.00in /  0mm 1062.0 W/m2
12:22 85.8 °F /  29.9 °C 38.8 °F /  3.8 °C 29.72in /  1006.3hPa NW 0.9mph /  1.4km/h 7.0mph /  11.3km/h 19% 0.00in /  0mm 1060.0 W/m2
12:27 86.2 °F /  30.1 °C 37.8 °F /  3.2 °C 29.72in /  1006.3hPa WSW 2.0mph /  3.2km/h 7.0mph /  11.3km/h 18% 0.00in /  0mm 1062.0 W/m2
12:32 86.2 °F /  30.1 °C 37.8 °F /  3.2 °C 29.71in /  1006hPa ENE 2.9mph /  4.7km/h 9.0mph /  14.5km/h 18% 0.00in /  0mm 1063.0 W/m2
12:37 86.2 °F /  30.1 °C 37.8 °F /  3.2 °C 29.71in /  1006hPa WSW 4.9mph /  7.9km/h 9.0mph /  14.5km/h 18% 0.00in /  0mm 1079.0 W/m2
12:42 86.0 °F /  30 °C 37.6 °F /  3.1 °C 29.71in /  1006hPa NW 8.1mph /  13km/h 8.1mph /  13km/h 18% 0.00in /  0mm 1092.0 W/m2
12:47 86.5 °F /  30.3 °C 37.9 °F /  3.3 °C 29.70in /  1005.6hPa WNW 2.0mph /  3.2km/h 7.0mph /  11.3km/h 18% 0.00in /  0mm 1081.0 W/m2
12:52 87.1 °F /  30.6 °C 38.5 °F /  3.6 °C 29.70in /  1005.6hPa WNW 0.9mph /  1.4km/h 7.0mph /  11.3km/h 18% 0.00in /  0mm 1067.0 W/m2
12:58 87.4 °F /  30.8 °C 37.2 °F /  2.9 °C 29.70in /  1005.6hPa NNW 6.0mph /  9.7km/h 14.0mph /  22.5km/h 17% 0.00in /  0mm 1079.0 W/m2
13:02 87.1 °F /  30.6 °C 38.5 °F /  3.6 °C 29.71in /  1006hPa WNW 8.1mph /  13km/h 11.0mph /  17.7km/h 18% 0.00in /  0mm 1065.0 W/m2
13:07 87.1 °F /  30.6 °C 38.5 °F /  3.6 °C 29.70in /  1005.6hPa Calm   6.0mph /  9.7km/h 18% 0.00in /  0mm 1060.0 W/m2
13:12 87.3 °F /  30.7 °C 35.6 °F /  2 °C 29.70in /  1005.6hPa NNW 2.0mph /  3.2km/h 10.0mph /  16.1km/h 16% 0.00in /  0mm 1048.0 W/m2
13:17 87.8 °F /  31 °C 37.6 °F /  3.1 °C 29.70in /  1005.6hPa Calm   7.0mph /  11.3km/h 17% 0.00in /  0mm 1044.0 W/m2
13:22 88.0 °F /  31.1 °C 39.2 °F /  4 °C 29.70in /  1005.6hPa NNW 6.9mph /  11.1km/h 7.0mph /  11.3km/h 18% 0.00in /  0mm 1042.0 W/m2
13:27 88.2 °F /  31.2 °C 39.4 °F /  4.1 °C 29.70in /  1005.6hPa NNE 4.0mph /  6.4km/h 7.0mph /  11.3km/h 18% 0.00in /  0mm 1041.0 W/m2
13:32 88.2 °F /  31.2 °C 39.4 °F /  4.1 °C 29.69in /  1005.3hPa NNW 4.0mph /  6.4km/h 14.0mph /  22.5km/h 18% 0.00in /  0mm 1034.0 W/m2
13:37 88.0 °F /  31.1 °C 37.8 °F /  3.2 °C 29.69in /  1005.3hPa North 2.0mph /  3.2km/h 9.0mph /  14.5km/h 17% 0.00in /  0mm 1027.0 W/m2
13:42 87.8 °F /  31 °C 39.0 °F /  3.9 °C 29.68in /  1005hPa NE 2.0mph /  3.2km/h 12.0mph /  19.3km/h 18% 0.00in /  0mm 1014.0 W/m2
13:47 88.0 °F /  31.1 °C 39.2 °F /  4 °C 29.68in /  1005hPa NW 4.0mph /  6.4km/h 10.0mph /  16.1km/h 18% 0.00in /  0mm 1014.0 W/m2
13:53 88.2 °F /  31.2 °C 39.4 °F /  4.1 °C 29.68in /  1005hPa NNW 2.9mph /  4.7km/h 10.0mph /  16.1km/h 18% 0.00in /  0mm 997.0 W/m2
13:58 88.0 °F /  31.1 °C 37.8 °F /  3.2 °C 29.67in /  1004.6hPa WNW 2.0mph /  3.2km/h 7.0mph /  11.3km/h 17% 0.00in /  0mm 979.0 W/m2
14:03 87.6 °F /  30.9 °C 38.8 °F /  3.8 °C 29.67in /  1004.6hPa North 4.0mph /  6.4km/h 8.0mph /  12.9km/h 18% 0.00in /  0mm 981.0 W/m2
14:09 88.0 °F /  31.1 °C 37.8 °F /  3.2 °C 29.67in /  1004.6hPa NNW 4.9mph /  7.9km/h 12.0mph /  19.3km/h 17% 0.00in /  0mm 974.0 W/m2
14:14 88.2 °F /  31.2 °C 37.9 °F /  3.3 °C 29.67in /  1004.6hPa NNW 2.0mph /  3.2km/h 10.0mph /  16.1km/h 17% 0.00in /  0mm 969.0 W/m2
14:19 88.2 °F /  31.2 °C 37.9 °F /  3.3 °C 29.67in /  1004.6hPa North 2.0mph /  3.2km/h 4.0mph /  6.4km/h 17% 0.00in /  0mm 142.0 W/m2
14:24 87.6 °F /  30.9 °C 38.8 °F /  3.8 °C 29.67in /  1004.6hPa NNW 6.9mph /  11.1km/h 7.0mph /  11.3km/h 18% 0.00in /  0mm 983.0 W/m2
14:29 87.8 °F /  31 °C 39.0 °F /  3.9 °C 29.67in /  1004.6hPa NNE 2.9mph /  4.7km/h 8.0mph /  12.9km/h 18% 0.00in /  0mm 944.0 W/m2
14:34 88.2 °F /  31.2 °C 37.9 °F /  3.3 °C 29.67in /  1004.6hPa WNW 2.9mph /  4.7km/h 9.0mph /  14.5km/h 17% 0.00in /  0mm 926.0 W/m2
14:40 88.5 °F /  31.4 °C 38.1 °F /  3.4 °C 29.67in /  1004.6hPa Calm   5.0mph /  8km/h 17% 0.00in /  0mm 916.0 W/m2
14:45 88.3 °F /  31.3 °C 37.9 °F /  3.3 °C 29.67in /  1004.6hPa Calm   4.0mph /  6.4km/h 17% 0.00in /  0mm 891.0 W/m2
14:50 88.9 °F /  31.6 °C 36.9 °F /  2.7 °C 29.67in /  1004.6hPa North 4.9mph /  7.9km/h 7.0mph /  11.3km/h 16% 0.00in /  0mm 900.0 W/m2
14:55 89.1 °F /  31.7 °C 37.0 °F /  2.8 °C 29.66in /  1004.3hPa WNW 0.9mph /  1.4km/h 8.0mph /  12.9km/h 16% 0.00in /  0mm 896.0 W/m2
15:00 89.4 °F /  31.9 °C 37.4 °F /  3 °C 29.66in /  1004.3hPa NNE 2.9mph /  4.7km/h 3.0mph /  4.8km/h 16% 0.00in /  0mm 856.0 W/m2
15:05 89.6 °F /  32 °C 37.4 °F /  3 °C 29.66in /  1004.3hPa NNW 11.0mph /  17.7km/h 11.0mph /  17.7km/h 16% 0.00in /  0mm 849.0 W/m2
15:10 89.8 °F /  32.1 °C 37.6 °F /  3.1 °C 29.67in /  1004.6hPa WSW 0.9mph /  1.4km/h 4.0mph /  6.4km/h 16% 0.00in /  0mm 830.0 W/m2
15:15 90.0 °F /  32.2 °C 36.1 °F /  2.3 °C 29.66in /  1004.3hPa NE 0.9mph /  1.4km/h 4.0mph /  6.4km/h 15% 0.00in /  0mm 816.0 W/m2
15:21 90.1 °F /  32.3 °C 36.3 °F /  2.4 °C 29.66in /  1004.3hPa Calm   1.0mph /  1.6km/h 15% 0.00in /  0mm 821.0 W/m2
15:27 90.3 °F /  32.4 °C 36.3 °F /  2.4 °C 29.66in /  1004.3hPa NNW 2.9mph /  4.7km/h 5.0mph /  8km/h 15% 0.00in /  0mm 800.0 W/m2
15:32 90.3 °F /  32.4 °C 36.3 °F /  2.4 °C 29.66in /  1004.3hPa NW 2.0mph /  3.2km/h 6.0mph /  9.7km/h 15% 0.00in /  0mm 779.0 W/m2
15:37 90.5 °F /  32.5 °C 34.9 °F /  1.6 °C 29.65in /  1003.9hPa North 4.0mph /  6.4km/h 9.0mph /  14.5km/h 14% 0.00in /  0mm 761.0 W/m2
15:43 90.5 °F /  32.5 °C 34.9 °F /  1.6 °C 29.65in /  1003.9hPa NNW 4.9mph /  7.9km/h 8.0mph /  12.9km/h 14% 0.00in /  0mm 751.0 W/m2
15:48 90.3 °F /  32.4 °C 34.7 °F /  1.5 °C 29.65in /  1003.9hPa NW 2.0mph /  3.2km/h 8.0mph /  12.9km/h 14% 0.00in /  0mm 729.0 W/m2
15:53 90.0 °F /  32.2 °C 34.3 °F /  1.3 °C 29.65in /  1003.9hPa West 4.9mph /  7.9km/h 9.0mph /  14.5km/h 14% 0.00in /  0mm 707.0 W/m2
15:58 89.8 °F /  32.1 °C 34.2 °F /  1.2 °C 29.65in /  1003.9hPa NNW 6.0mph /  9.7km/h 7.0mph /  11.3km/h 14% 0.00in /  0mm 694.0 W/m2
16:03 90.0 °F /  32.2 °C 34.3 °F /  1.3 °C 29.65in /  1003.9hPa North 6.9mph /  11.1km/h 12.0mph /  19.3km/h 14% 0.00in /  0mm 675.0 W/m2
16:08 90.0 °F /  32.2 °C 36.1 °F /  2.3 °C 29.65in /  1003.9hPa WNW 2.9mph /  4.7km/h 10.0mph /  16.1km/h 15% 0.00in /  0mm 661.0 W/m2
16:13 90.5 °F /  32.5 °C 36.5 °F /  2.5 °C 29.65in /  1003.9hPa NNW 6.0mph /  9.7km/h 6.0mph /  9.7km/h 15% 0.00in /  0mm 643.0 W/m2
16:20 90.5 °F /  32.5 °C 36.5 °F /  2.5 °C 29.65in /  1003.9hPa WNW 4.9mph /  7.9km/h 7.0mph /  11.3km/h 15% 0.00in /  0mm 617.0 W/m2
16:25 90.3 °F /  32.4 °C 38.1 °F /  3.4 °C 29.65in /  1003.9hPa WNW 0.9mph /  1.4km/h 5.0mph /  8km/h 16% 0.00in /  0mm 598.0 W/m2
16:30 90.0 °F /  32.2 °C 34.3 °F /  1.3 °C 29.64in /  1003.6hPa WNW 2.0mph /  3.2km/h 6.0mph /  9.7km/h 14% 0.00in /  0mm 596.0 W/m2
16:35 90.0 °F /  32.2 °C 36.1 °F /  2.3 °C 29.64in /  1003.6hPa NNW 4.9mph /  7.9km/h 5.0mph /  8km/h 15% 0.00in /  0mm 575.0 W/m2
16:40 90.0 °F /  32.2 °C 36.1 °F /  2.3 °C 29.64in /  1003.6hPa WSW 0.9mph /  1.4km/h 6.0mph /  9.7km/h 15% 0.00in /  0mm 577.0 W/m2
16:45 90.0 °F /  32.2 °C 36.1 °F /  2.3 °C 29.64in /  1003.6hPa WNW 2.9mph /  4.7km/h 5.0mph /  8km/h 15% 0.00in /  0mm 564.0 W/m2
16:51 90.0 °F /  32.2 °C 37.8 °F /  3.2 °C 29.64in /  1003.6hPa West 0.9mph /  1.4km/h 5.0mph /  8km/h 16% 0.00in /  0mm 571.0 W/m2
16:56 90.1 °F /  32.3 °C 37.9 °F /  3.3 °C 29.64in /  1003.6hPa SW 2.0mph /  3.2km/h 5.0mph /  8km/h 16% 0.00in /  0mm 540.0 W/m2
17:02 89.8 °F /  32.1 °C 37.6 °F /  3.1 °C 29.64in /  1003.6hPa Calm   4.0mph /  6.4km/h 16% 0.00in /  0mm 548.0 W/m2
17:07 89.8 °F /  32.1 °C 39.2 °F /  4 °C 29.64in /  1003.6hPa NNW 2.9mph /  4.7km/h 7.0mph /  11.3km/h 17% 0.00in /  0mm 526.0 W/m2
17:12 89.8 °F /  32.1 °C 39.2 °F /  4 °C 29.64in /  1003.6hPa West 2.0mph /  3.2km/h 5.0mph /  8km/h 17% 0.00in /  0mm 422.0 W/m2
17:17 89.1 °F /  31.7 °C 38.7 °F /  3.7 °C 29.64in /  1003.6hPa NNE 2.0mph /  3.2km/h 13.0mph /  20.9km/h 17% 0.00in /  0mm 483.0 W/m2
17:22 89.1 °F /  31.7 °C 38.7 °F /  3.7 °C 29.64in /  1003.6hPa NE 8.9mph /  14.3km/h 11.0mph /  17.7km/h 17% 0.00in /  0mm 464.0 W/m2
17:27 88.5 °F /  31.4 °C 36.7 °F /  2.6 °C 29.64in /  1003.6hPa ENE 4.0mph /  6.4km/h 9.0mph /  14.5km/h 16% 0.00in /  0mm 311.0 W/m2
17:32 87.6 °F /  30.9 °C 37.4 °F /  3 °C 29.64in /  1003.6hPa NW 8.9mph /  14.3km/h 9.0mph /  14.5km/h 17% 0.00in /  0mm 155.0 W/m2
17:37 86.9 °F /  30.5 °C 38.3 °F /  3.5 °C 29.64in /  1003.6hPa NNW 2.0mph /  3.2km/h 9.0mph /  14.5km/h 18% 0.00in /  0mm 202.0 W/m2
17:42 86.7 °F /  30.4 °C 38.1 °F /  3.4 °C 29.64in /  1003.6hPa NNW 8.1mph /  13km/h 14.0mph /  22.5km/h 18% 0.00in /  0mm 183.0 W/m2
17:47 86.5 °F /  30.3 °C 37.9 °F /  3.3 °C 29.64in /  1003.6hPa NNW 4.0mph /  6.4km/h 7.0mph /  11.3km/h 18% 0.00in /  0mm 274.0 W/m2
17:53 86.4 °F /  30.2 °C 37.9 °F /  3.3 °C 29.64in /  1003.6hPa Calm   3.0mph /  4.8km/h 18% 0.00in /  0mm 262.0 W/m2
17:58 86.4 °F /  30.2 °C 37.9 °F /  3.3 °C 29.64in /  1003.6hPa NNW 4.0mph /  6.4km/h 6.0mph /  9.7km/h 18% 0.00in /  0mm 128.0 W/m2
18:03 86.2 °F /  30.1 °C 37.8 °F /  3.2 °C 29.64in /  1003.6hPa NNE 2.9mph /  4.7km/h 6.0mph /  9.7km/h 18% 0.00in /  0mm 230.0 W/m2
18:08 86.2 °F /  30.1 °C 36.3 °F /  2.4 °C 29.64in /  1003.6hPa NW 2.0mph /  3.2km/h 5.0mph /  8km/h 17% 0.00in /  0mm 200.0 W/m2
18:13 86.4 °F /  30.2 °C 36.3 °F /  2.4 °C 29.64in /  1003.6hPa NW 4.0mph /  6.4km/h 5.0mph /  8km/h 17% 0.00in /  0mm 132.0 W/m2
18:18 86.2 °F /  30.1 °C 37.8 °F /  3.2 °C 29.64in /  1003.6hPa NNW 2.0mph /  3.2km/h 9.0mph /  14.5km/h 18% 0.00in /  0mm 118.0 W/m2
18:23 85.6 °F /  29.8 °C 37.2 °F /  2.9 °C 29.64in /  1003.6hPa NNW 6.0mph /  9.7km/h 7.0mph /  11.3km/h 18% 0.00in /  0mm 83.0 W/m2
18:28 85.3 °F /  29.6 °C 37.0 °F /  2.8 °C 29.64in /  1003.6hPa NW 4.0mph /  6.4km/h 8.0mph /  12.9km/h 18% 0.00in /  0mm 76.0 W/m2
18:34 85.1 °F /  29.5 °C 38.1 °F /  3.4 °C 29.65in /  1003.9hPa WNW 2.9mph /  4.7km/h 7.0mph /  11.3km/h 19% 0.00in /  0mm 58.0 W/m2
18:39 84.7 °F /  29.3 °C 37.9 °F /  3.3 °C 29.65in /  1003.9hPa North 2.9mph /  4.7km/h 8.0mph /  12.9km/h 19% 0.00in /  0mm 49.0 W/m2
18:44 84.6 °F /  29.2 °C 37.8 °F /  3.2 °C 29.65in /  1003.9hPa Calm   8.0mph /  12.9km/h 19% 0.00in /  0mm 33.0 W/m2
18:50 84.0 °F /  28.9 °C 37.4 °F /  3 °C 29.65in /  1003.9hPa North 2.0mph /  3.2km/h 6.0mph /  9.7km/h 19% 0.00in /  0mm 21.0 W/m2
18:55 83.5 °F /  28.6 °C 38.1 °F /  3.4 °C 29.65in /  1003.9hPa NNW 0.9mph /  1.4km/h 4.0mph /  6.4km/h 20% 0.00in /  0mm 16.0 W/m2
19:00 82.9 °F /  28.3 °C 37.8 °F /  3.2 °C 29.65in /  1003.9hPa NNW 4.0mph /  6.4km/h 6.0mph /  9.7km/h 20% 0.00in /  0mm 12.0 W/m2
19:05 82.6 °F /  28.1 °C 37.4 °F /  3 °C 29.65in /  1003.9hPa West 0.9mph /  1.4km/h 5.0mph /  8km/h 20% 0.00in /  0mm 9.0 W/m2
19:10 82.0 °F /  27.8 °C 38.3 °F /  3.5 °C 29.65in /  1003.9hPa Calm   5.0mph /  8km/h 21% 0.00in /  0mm 5.0 W/m2
19:15 81.3 °F /  27.4 °C 38.8 °F /  3.8 °C 29.66in /  1004.3hPa WSW 8.1mph /  13km/h 16.0mph /  25.7km/h 22% 0.00in /  0mm 0.0 W/m2
19:20 80.1 °F /  26.7 °C 38.8 °F /  3.8 °C 29.66in /  1004.3hPa West 6.0mph /  9.7km/h 13.0mph /  20.9km/h 23% 0.00in /  0mm 0.0 W/m2
19:26 79.2 °F /  26.2 °C 38.1 °F /  3.4 °C 29.67in /  1004.6hPa West 2.9mph /  4.7km/h 14.0mph /  22.5km/h 23% 0.00in /  0mm 0.0 W/m2
19:31 78.3 °F /  25.7 °C 38.5 °F /  3.6 °C 29.67in /  1004.6hPa West 4.9mph /  7.9km/h 9.0mph /  14.5km/h 24% 0.00in /  0mm 0.0 W/m2
19:36 77.7 °F /  25.4 °C 38.1 °F /  3.4 °C 29.67in /  1004.6hPa West 4.9mph /  7.9km/h 11.0mph /  17.7km/h 24% 0.00in /  0mm 0.0 W/m2
19:41 77.2 °F /  25.1 °C 38.7 °F /  3.7 °C 29.68in /  1005hPa West 10.1mph /  16.3km/h 10.1mph /  16.3km/h 25% 0.00in /  0mm 0.0 W/m2
19:46 76.8 °F /  24.9 °C 38.3 °F /  3.5 °C 29.68in /  1005hPa West 6.9mph /  11.1km/h 11.0mph /  17.7km/h 25% 0.00in /  0mm 0.0 W/m2
19:51 76.5 °F /  24.7 °C 39.0 °F /  3.9 °C 29.68in /  1005hPa WSW 4.9mph /  7.9km/h 5.0mph /  8km/h 26% 0.00in /  0mm 0.0 W/m2
19:56 76.3 °F /  24.6 °C 38.8 °F /  3.8 °C 29.68in /  1005hPa West 4.9mph /  7.9km/h 8.0mph /  12.9km/h 26% 0.00in /  0mm 0.0 W/m2
20:01 75.7 °F /  24.3 °C 38.5 °F /  3.6 °C 29.69in /  1005.3hPa SW 4.9mph /  7.9km/h 8.0mph /  12.9km/h 26% 0.00in /  0mm 0.0 W/m2
20:06 75.6 °F /  24.2 °C 39.2 °F /  4 °C 29.69in /  1005.3hPa West 6.9mph /  11.1km/h 7.0mph /  11.3km/h 27% 0.00in /  0mm 0.0 W/m2
20:12 75.2 °F /  24 °C 38.8 °F /  3.8 °C 29.70in /  1005.6hPa WSW 2.9mph /  4.7km/h 8.0mph /  12.9km/h 27% 0.00in /  0mm 0.0 W/m2
20:17 74.8 °F /  23.8 °C 38.7 °F /  3.7 °C 29.70in /  1005.6hPa WSW 4.9mph /  7.9km/h 9.0mph /  14.5km/h 27% 0.00in /  0mm 0.0 W/m2
20:22 74.7 °F /  23.7 °C 39.4 °F /  4.1 °C 29.70in /  1005.6hPa SW 4.0mph /  6.4km/h 10.0mph /  16.1km/h 28% 0.00in /  0mm 0.0 W/m2
20:27 74.3 °F /  23.5 °C 39.0 °F /  3.9 °C 29.70in /  1005.6hPa WSW 4.0mph /  6.4km/h 4.0mph /  6.4km/h 28% 0.00in /  0mm 0.0 W/m2
20:32 74.1 °F /  23.4 °C 39.0 °F /  3.9 °C 29.70in /  1005.6hPa West 4.9mph /  7.9km/h 7.0mph /  11.3km/h 28% 0.00in /  0mm 0.0 W/m2
20:37 73.8 °F /  23.2 °C 38.7 °F /  3.7 °C 29.71in /  1006hPa WSW 2.9mph /  4.7km/h 5.0mph /  8km/h 28% 0.00in /  0mm 0.0 W/m2
20:42 73.6 °F /  23.1 °C 38.5 °F /  3.6 °C 29.71in /  1006hPa Calm   5.0mph /  8km/h 28% 0.00in /  0mm 0.0 W/m2
20:47 73.2 °F /  22.9 °C 38.1 °F /  3.4 °C 29.71in /  1006hPa West 2.0mph /  3.2km/h 4.0mph /  6.4km/h 28% 0.00in /  0mm 0.0 W/m2
20:52 73.0 °F /  22.8 °C 37.0 °F /  2.8 °C 29.72in /  1006.3hPa SSE 2.9mph /  4.7km/h 3.0mph /  4.8km/h 27% 0.00in /  0mm 0.0 W/m2
20:57 72.9 °F /  22.7 °C 36.9 °F /  2.7 °C 29.72in /  1006.3hPa SSE 2.9mph /  4.7km/h 4.0mph /  6.4km/h 27% 0.00in /  0mm 0.0 W/m2
21:03 72.7 °F /  22.6 °C 36.9 °F /  2.7 °C 29.72in /  1006.3hPa SSW 0.9mph /  1.4km/h 5.0mph /  8km/h 27% 0.00in /  0mm 0.0 W/m2
21:08 72.3 °F /  22.4 °C 35.6 °F /  2 °C 29.72in /  1006.3hPa SSW 2.0mph /  3.2km/h 6.0mph /  9.7km/h 26% 0.00in /  0mm 0.0 W/m2
21:13 72.1 °F /  22.3 °C 35.4 °F /  1.9 °C 29.72in /  1006.3hPa West 2.0mph /  3.2km/h 5.0mph /  8km/h 26% 0.00in /  0mm 0.0 W/m2
21:18 72.0 °F /  22.2 °C 35.2 °F /  1.8 °C 29.72in /  1006.3hPa West 2.0mph /  3.2km/h 6.0mph /  9.7km/h 26% 0.00in /  0mm 0.0 W/m2
21:23 71.8 °F /  22.1 °C 35.1 °F /  1.7 °C 29.72in /  1006.3hPa Calm   1.0mph /  1.6km/h 26% 0.00in /  0mm 0.0 W/m2
21:28 71.6 °F /  22 °C 35.8 °F /  2.1 °C 29.73in /  1006.7hPa WNW 2.9mph /  4.7km/h 4.0mph /  6.4km/h 27% 0.00in /  0mm 0.0 W/m2
21:33 71.2 °F /  21.8 °C 35.6 °F /  2 °C 29.73in /  1006.7hPa Calm   5.0mph /  8km/h 27% 0.00in /  0mm 0.0 W/m2
21:38 71.2 °F /  21.8 °C 35.6 °F /  2 °C 29.73in /  1006.7hPa West 0.9mph /  1.4km/h 3.0mph /  4.8km/h 27% 0.00in /  0mm 0.0 W/m2
21:43 70.9 °F /  21.6 °C 35.2 °F /  1.8 °C 29.73in /  1006.7hPa SW 2.0mph /  3.2km/h 5.0mph /  8km/h 27% 0.00in /  0mm 0.0 W/m2
21:49 70.7 °F /  21.5 °C 36.0 °F /  2.2 °C 29.73in /  1006.7hPa SW 2.0mph /  3.2km/h 7.0mph /  11.3km/h 28% 0.00in /  0mm 0.0 W/m2
21:54 70.5 °F /  21.4 °C 34.9 °F /  1.6 °C 29.73in /  1006.7hPa NW 0.9mph /  1.4km/h 7.0mph /  11.3km/h 27% 0.00in /  0mm 0.0 W/m2
22:00 70.5 °F /  21.4 °C 35.8 °F /  2.1 °C 29.74in /  1007hPa Calm   1.0mph /  1.6km/h 28% 0.00in /  0mm 0.0 W/m2
22:05 70.3 °F /  21.3 °C 35.6 °F /  2 °C 29.74in /  1007hPa West 2.0mph /  3.2km/h 5.0mph /  8km/h 28% 0.00in /  0mm 0.0 W/m2
22:10 70.2 °F /  21.2 °C 35.6 °F /  2 °C 29.74in /  1007hPa WSW 2.9mph /  4.7km/h 5.0mph /  8km/h 28% 0.00in /  0mm 0.0 W/m2
22:15 70.2 °F /  21.2 °C 35.6 °F /  2 °C 29.74in /  1007hPa NNW 0.9mph /  1.4km/h 1.0mph /  1.6km/h 28% 0.00in /  0mm 0.0 W/m2
22:20 70.0 °F /  21.1 °C 35.4 °F /  1.9 °C 29.74in /  1007hPa Calm   2.0mph /  3.2km/h 28% 0.00in /  0mm 0.0 W/m2
22:26 69.8 °F /  21 °C 35.2 °F /  1.8 °C 29.75in /  1007.3hPa SW 2.0mph /  3.2km/h 2.0mph /  3.2km/h 28% 0.00in /  0mm 0.0 W/m2
22:31 69.6 °F /  20.9 °C 36.0 °F /  2.2 °C 29.75in /  1007.3hPa Calm   1.0mph /  1.6km/h 29% 0.00in /  0mm 0.0 W/m2
22:36 69.4 °F /  20.8 °C 35.8 °F /  2.1 °C 29.74in /  1007hPa WSW 0.9mph /  1.4km/h 2.0mph /  3.2km/h 29% 0.00in /  0mm 0.0 W/m2
22:42 69.3 °F /  20.7 °C 35.6 °F /  2 °C 29.74in /  1007hPa Calm   3.0mph /  4.8km/h 29% 0.00in /  0mm 0.0 W/m2
22:47 69.3 °F /  20.7 °C 35.6 °F /  2 °C 29.74in /  1007hPa Calm   2.0mph /  3.2km/h 29% 0.00in /  0mm 0.0 W/m2
22:52 69.1 °F /  20.6 °C 35.4 °F /  1.9 °C 29.75in /  1007.3hPa Calm   4.0mph /  6.4km/h 29% 0.00in /  0mm 0.0 W/m2
22:58 69.1 °F /  20.6 °C 35.4 °F /  1.9 °C 29.74in /  1007hPa West 0.9mph /  1.4km/h 5.0mph /  8km/h 29% 0.00in /  0mm 0.0 W/m2
23:03 68.9 °F /  20.5 °C 35.4 °F /  1.9 °C 29.74in /  1007hPa Calm   1.0mph /  1.6km/h 29% 0.00in /  0mm 0.0 W/m2
23:08 68.7 °F /  20.4 °C 35.2 °F /  1.8 °C 29.74in /  1007hPa West 0.9mph /  1.4km/h 3.0mph /  4.8km/h 29% 0.00in /  0mm 0.0 W/m2
23:13 68.5 °F /  20.3 °C 35.1 °F /  1.7 °C 29.74in /  1007hPa Calm   2.0mph /  3.2km/h 29% 0.00in /  0mm 0.0 W/m2
23:18 68.5 °F /  20.3 °C 35.1 °F /  1.7 °C 29.74in /  1007hPa Calm   3.0mph /  4.8km/h 29% 0.00in /  0mm 0.0 W/m2
23:23 68.4 °F /  20.2 °C 34.9 °F /  1.6 °C 29.74in /  1007hPa Calm   3.0mph /  4.8km/h 29% 0.00in /  0mm 0.0 W/m2
23:28 68.4 °F /  20.2 °C 34.9 °F /  1.6 °C 29.74in /  1007hPa Calm     29% 0.00in /  0mm 0.0 W/m2
23:34 68.2 °F /  20.1 °C 33.8 °F /  1 °C 29.74in /  1007hPa Calm     28% 0.00in /  0mm 0.0 W/m2
23:39 68.2 °F /  20.1 °C 33.8 °F /  1 °C 29.74in /  1007hPa SW 2.9mph /  4.7km/h 3.0mph /  4.8km/h 28% 0.00in /  0mm 0.0 W/m2
23:44 68.0 °F /  20 °C 33.6 °F /  0.9 °C 29.73in /  1006.7hPa Calm   1.0mph /  1.6km/h 28% 0.00in /  0mm 0.0 W/m2
23:49 67.8 °F /  19.9 °C 33.4 °F /  0.8 °C 29.74in /  1007hPa Calm     28% 0.00in /  0mm 0.0 W/m2
23:54 67.6 °F /  19.8 °C 34.2 °F /  1.2 °C 29.73in /  1006.7hPa Calm   1.0mph /  1.6km/h 29% 0.00in /  0mm 0.0 W/m2
23:59 67.5 °F /  19.7 °C 33.3 °F /  0.7 °C 29.73in /  1006.7hPa Calm   2.0mph /  3.2km/h 28% 0.00in /  0mm 0.0 W/m2
Olympia, Windhoek, Namibia
Compliments of Weather Underground - 3.25 mb